createdAt,value
2022-11-29T00:00:49.194Z,101522.03
2022-11-29T00:03:15.762Z,101522.13
2022-11-29T00:05:42.263Z,101525.69
2022-11-29T00:08:08.730Z,101524.72
2022-11-29T00:10:38.196Z,101522.91
2022-11-29T00:13:05.152Z,101529.22
2022-11-29T00:15:36.726Z,101527.50
2022-11-29T00:18:03.871Z,101535.56
2022-11-29T00:20:30.393Z,101530.19
2022-11-29T00:22:56.970Z,101534.59
2022-11-29T00:25:23.505Z,101533.66
2022-11-29T00:27:51.426Z,101531.75
2022-11-29T00:30:19.049Z,101529.91
2022-11-29T00:32:45.532Z,101536.97
2022-11-29T00:35:12.287Z,101547.56
2022-11-29T00:37:38.951Z,101540.44
2022-11-29T00:40:06.233Z,101537.75
2022-11-29T00:42:32.699Z,101545.75
2022-11-29T00:44:59.128Z,101548.44
2022-11-29T00:47:25.499Z,101547.47
2022-11-29T00:49:52.066Z,101543.91
2022-11-29T00:52:18.575Z,101538.59
2022-11-29T00:54:45.300Z,101533.31
2022-11-29T00:57:11.877Z,101542.34
2022-11-29T00:59:38.438Z,101541.38
2022-11-29T01:02:04.890Z,101546.06
2022-11-29T01:04:31.368Z,101540.84
2022-11-29T01:06:57.839Z,101539.97
2022-11-29T01:09:24.288Z,101542.75
2022-11-29T01:11:50.943Z,101546.31
2022-11-29T01:14:17.397Z,101554.28
2022-11-29T01:16:43.853Z,101551.44
2022-11-29T01:19:10.590Z,101559.50
2022-11-29T01:21:37.501Z,101556.03
2022-11-29T01:24:04.160Z,101552.56
2022-11-29T01:26:31.536Z,101561.50
2022-11-29T01:28:58.782Z,101561.50
2022-11-29T01:31:36.210Z,101564.88
2022-11-29T01:34:04.821Z,101564.03
2022-11-29T01:36:33.521Z,101565.06
2022-11-29T01:39:02.111Z,101571.41
2022-11-29T01:41:31.922Z,101577.53
2022-11-29T01:44:00.487Z,101575.72
2022-11-29T01:46:33.056Z,101577.63
2022-11-29T01:49:06.248Z,101574.19
2022-11-29T01:51:34.226Z,101574.94
2022-11-29T01:54:00.826Z,101584.94
2022-11-29T01:56:29.512Z,101590.31
2022-11-29T01:58:56.238Z,101584.09
2022-11-29T02:01:23.284Z,101585.03
2022-11-29T02:03:49.878Z,101582.25
2022-11-29T02:06:16.474Z,101593.84
2022-11-29T02:08:43.779Z,101594.72
2022-11-29T02:11:19.408Z,101589.41
2022-11-29T02:13:57.945Z,101591.22
2022-11-29T02:16:34.461Z,101586.88
2022-11-29T02:19:38.152Z,101588.59
2022-11-29T02:22:20.743Z,101584.94
2022-11-29T02:25:24.363Z,101589.47
2022-11-29T02:28:19.650Z,101589.56
2022-11-29T02:31:04.545Z,101592.16
2022-11-29T02:33:46.171Z,101595.03
2022-11-29T02:36:18.784Z,101596.03
2022-11-29T02:39:20.146Z,101596.84
2022-11-29T02:42:28.047Z,101599.63
2022-11-29T02:45:14.460Z,101597.94
2022-11-29T02:48:08.361Z,101604.19
2022-11-29T02:50:42.219Z,101602.38
2022-11-29T02:53:44.916Z,101605.84
2022-11-29T02:56:14.230Z,101610.44
2022-11-29T02:58:54.058Z,101612.25
2022-11-29T03:01:34.742Z,101620.41
2022-11-29T03:04:23.303Z,101625.78
2022-11-29T03:07:20.923Z,101631.16
2022-11-29T03:10:02.735Z,101634.03
2022-11-29T03:12:37.941Z,101627.78
2022-11-29T03:15:22.566Z,101621.59
2022-11-29T03:18:23.546Z,101627.06
2022-11-29T03:20:55.971Z,101620.97
2022-11-29T03:23:35.902Z,101629.81
2022-11-29T03:26:17.410Z,101630.72
2022-11-29T03:29:01.167Z,101640.50
2022-11-29T03:31:33.497Z,101642.22
2022-11-29T03:34:12.309Z,101649.44
2022-11-29T03:37:06.100Z,101649.59
2022-11-29T03:39:44.470Z,101656.78
2022-11-29T03:42:25.164Z,101653.31
2022-11-29T03:45:07.732Z,101653.38
2022-11-29T03:47:41.959Z,101652.44
2022-11-29T03:50:18.980Z,101659.78
2022-11-29T03:52:54.084Z,101659.84
2022-11-29T03:55:46.094Z,101658.22
2022-11-29T03:58:15.301Z,101668.09
2022-11-29T04:00:47.638Z,101670.84
2022-11-29T04:03:35.419Z,101672.75
2022-11-29T04:06:39.208Z,101674.50
2022-11-29T04:09:56.268Z,101678.91
2022-11-29T04:12:47.472Z,101677.09
2022-11-29T04:15:34.032Z,101681.53
2022-11-29T04:18:24.393Z,101682.41
2022-11-29T04:21:17.927Z,101682.41
2022-11-29T04:24:02.503Z,101680.81
2022-11-29T04:26:37.997Z,101685.63
2022-11-29T04:29:26.222Z,101692.69
2022-11-29T04:32:02.558Z,101687.31
2022-11-29T04:34:46.394Z,101689.03
2022-11-29T04:37:25.938Z,101691.63
2022-11-29T04:40:24.022Z,101689.03
2022-11-29T04:43:33.495Z,101694.16
2022-11-29T04:46:11.379Z,101701.38
2022-11-29T04:48:49.451Z,101708.56
2022-11-29T04:51:25.920Z,101699.88
2022-11-29T04:54:20.292Z,101701.66
2022-11-29T04:56:48.701Z,101701.59
2022-11-29T04:59:34.390Z,101706.13
2022-11-29T05:02:25.321Z,101708.00
2022-11-29T05:05:07.586Z,101709.72
2022-11-29T05:07:52.848Z,101712.56
2022-11-29T05:10:25.394Z,101715.28
2022-11-29T05:13:19.441Z,101723.34
2022-11-29T05:16:13.755Z,101726.00
2022-11-29T05:19:27.719Z,101736.69
2022-11-29T05:22:15.812Z,101741.13
2022-11-29T05:25:10.685Z,101738.50
2022-11-29T05:27:51.375Z,101741.41
2022-11-29T05:30:23.521Z,101742.22
2022-11-29T05:33:20.665Z,101751.28
2022-11-29T05:36:05.517Z,101744.91
2022-11-29T05:39:10.605Z,101752.09
2022-11-29T05:42:10.697Z,101752.97
2022-11-29T05:44:46.388Z,101751.16
2022-11-29T05:47:32.283Z,101754.69
2022-11-29T05:50:18.250Z,101757.38
2022-11-29T05:52:59.267Z,101762.69
2022-11-29T05:55:51.656Z,101771.72
2022-11-29T05:58:30.539Z,101772.75
2022-11-29T06:01:13.551Z,101777.25
2022-11-29T06:03:56.922Z,101776.34
2022-11-29T06:06:34.613Z,101794.94
2022-11-29T06:09:28.893Z,101790.44
2022-11-29T06:12:02.428Z,101791.56
2022-11-29T06:14:34.520Z,101792.41
2022-11-29T06:17:16.071Z,101781.88
2022-11-29T06:19:53.063Z,101786.22
2022-11-29T06:22:25.539Z,101794.28
2022-11-29T06:25:17.132Z,101791.59
2022-11-29T06:28:04.648Z,101788.88
2022-11-29T06:30:52.189Z,101790.59
2022-11-29T06:33:28.419Z,101803.06
2022-11-29T06:36:15.972Z,101803.16
2022-11-29T06:38:42.651Z,101805.34
2022-11-29T06:41:17.034Z,101806.31
2022-11-29T06:43:43.707Z,101814.34
2022-11-29T06:46:17.980Z,101820.59
2022-11-29T06:49:02.359Z,101824.97
2022-11-29T06:51:40.240Z,101829.44
2022-11-29T06:54:06.653Z,101838.38
2022-11-29T06:56:59.875Z,101835.78
2022-11-29T07:00:03.721Z,101843.09
2022-11-29T07:03:08.182Z,101851.97
2022-11-29T07:05:35.624Z,101844.00
2022-11-29T07:08:08.724Z,101846.69
2022-11-29T07:10:37.480Z,101854.81
2022-11-29T07:13:04.702Z,101862.81
2022-11-29T07:15:31.699Z,101856.41
2022-11-29T07:18:30.706Z,101864.38
2022-11-29T07:21:19.504Z,101869.75
2022-11-29T07:24:00.979Z,101874.28
2022-11-29T07:26:45.370Z,101883.34
2022-11-29T07:29:37.456Z,101878.03
2022-11-29T07:32:19.099Z,101885.38
2022-11-29T07:35:07.703Z,101889.09
2022-11-29T07:38:02.620Z,101893.72
2022-11-29T07:40:37.934Z,101896.13
2022-11-29T07:43:23.333Z,101900.50
2022-11-29T07:45:50.330Z,101910.28
2022-11-29T07:48:17.591Z,101900.41
2022-11-29T07:50:47.100Z,101905.78
2022-11-29T07:53:19.120Z,101911.09
2022-11-29T07:55:46.744Z,101924.44
2022-11-29T07:58:14.815Z,101914.63
2022-11-29T08:00:42.614Z,101913.13
2022-11-29T08:03:09.639Z,101923.88
2022-11-29T08:05:40.342Z,101923.72
2022-11-29T08:08:07.270Z,101928.34
2022-11-29T08:10:34.510Z,101930.16
2022-11-29T08:13:00.960Z,101934.75
2022-11-29T08:15:27.442Z,101930.31
2022-11-29T08:17:53.839Z,101933.88
2022-11-29T08:20:20.517Z,101936.72
2022-11-29T08:22:58.300Z,101940.97
2022-11-29T08:25:26.001Z,101940.91
2022-11-29T08:27:52.455Z,101937.16
2022-11-29T08:30:22.135Z,101937.97
2022-11-29T08:32:52.091Z,101938.81
2022-11-29T08:35:20.190Z,101943.41
2022-11-29T08:37:46.873Z,101942.53
2022-11-29T08:40:13.769Z,101937.00
2022-11-29T08:42:40.222Z,101945.81
2022-11-29T08:45:07.845Z,101938.47
2022-11-29T08:47:36.968Z,101937.38
2022-11-29T08:50:12.242Z,101949.66
2022-11-29T08:53:03.530Z,101941.53
2022-11-29T08:55:43.172Z,101951.13
2022-11-29T08:58:26.963Z,101955.47
2022-11-29T09:00:53.646Z,101960.84
2022-11-29T09:03:38.975Z,101957.25
2022-11-29T09:06:12.693Z,101956.00
2022-11-29T09:08:41.043Z,101962.03
2022-11-29T09:11:14.936Z,101960.50
2022-11-29T09:13:46.983Z,101958.81
2022-11-29T09:16:17.950Z,101957.81
2022-11-29T09:18:51.283Z,101964.84
2022-11-29T09:21:18.790Z,101965.66
2022-11-29T09:23:45.475Z,101968.84
2022-11-29T09:26:19.759Z,101975.72
2022-11-29T09:28:46.784Z,101980.25
2022-11-29T09:31:15.182Z,101976.47
2022-11-29T09:33:42.321Z,101980.69
2022-11-29T09:36:10.696Z,101986.88
2022-11-29T09:38:38.352Z,101984.38
2022-11-29T09:41:47.078Z,101992.09
2022-11-29T09:44:24.755Z,101993.59
2022-11-29T09:47:18.004Z,102001.47
2022-11-29T09:50:12.371Z,102001.31
2022-11-29T09:52:57.592Z,102008.44
2022-11-29T09:55:26.889Z,102019.00
2022-11-29T09:57:56.615Z,102014.47
2022-11-29T10:00:23.159Z,102016.88
2022-11-29T10:03:03.965Z,102012.00
2022-11-29T10:05:51.733Z,102009.88
2022-11-29T10:08:25.687Z,102016.28
2022-11-29T10:11:01.485Z,102018.03
2022-11-29T10:13:34.183Z,102024.84
2022-11-29T10:16:25.238Z,102027.38
2022-11-29T10:18:56.852Z,102035.63
2022-11-29T10:21:32.430Z,102024.69
2022-11-29T10:24:04.419Z,102012.19
2022-11-29T10:26:35.145Z,102014.88
2022-11-29T10:29:02.327Z,102015.66
2022-11-29T10:31:34.694Z,102013.59
2022-11-29T10:34:07.902Z,102016.81
2022-11-29T10:36:41.673Z,102019.63
2022-11-29T10:39:39.841Z,102018.91
2022-11-29T10:42:38.086Z,102015.69
2022-11-29T10:45:14.790Z,102011.44
2022-11-29T10:47:41.374Z,102015.25
2022-11-29T10:50:13.137Z,102016.09
2022-11-29T10:52:39.590Z,102018.03
2022-11-29T10:55:12.410Z,102018.94
2022-11-29T10:58:13.717Z,102009.88
2022-11-29T11:00:51.586Z,102016.09
2022-11-29T11:03:52.803Z,102011.34
2022-11-29T11:06:28.307Z,102020.72
2022-11-29T11:08:57.322Z,102015.34
2022-11-29T11:11:33.331Z,102020.47
2022-11-29T11:14:16.892Z,102017.25
2022-11-29T11:16:43.398Z,102014.16
2022-11-29T11:19:29.770Z,102014.06
2022-11-29T11:21:58.640Z,102009.63
2022-11-29T11:24:27.145Z,102011.78
2022-11-29T11:26:53.937Z,102011.34
2022-11-29T11:29:25.922Z,102011.91
2022-11-29T11:31:58.691Z,102017.72
2022-11-29T11:34:37.238Z,102021.97
2022-11-29T11:37:15.820Z,102024.75
2022-11-29T11:39:43.803Z,102017.59
2022-11-29T11:42:31.518Z,102017.13
2022-11-29T11:44:58.129Z,102024.41
2022-11-29T11:47:29.838Z,102022.69
2022-11-29T11:50:02.329Z,102020.22
2022-11-29T11:52:49.865Z,102023.78
2022-11-29T11:55:53.797Z,102021.09
2022-11-29T11:58:27.366Z,102031.28
2022-11-29T12:01:21.507Z,102036.09
2022-11-29T12:03:59.129Z,102040.53
2022-11-29T12:06:44.378Z,102030.63
2022-11-29T12:09:16.451Z,102034.81
2022-11-29T12:11:55.208Z,102042.28
2022-11-29T12:14:31.185Z,102034.19
2022-11-29T12:17:09.482Z,102045.69
2022-11-29T12:19:46.586Z,102038.53
2022-11-29T12:22:19.001Z,102048.94
2022-11-29T12:24:55.301Z,102057.09
2022-11-29T12:27:22.004Z,102056.59
2022-11-29T12:29:48.571Z,102057.22
2022-11-29T12:32:38.069Z,102055.41
2022-11-29T12:35:38.388Z,102053.81
2022-11-29T12:38:10.784Z,102054.41
2022-11-29T12:41:02.606Z,102059.81
2022-11-29T12:44:03.879Z,102070.09
2022-11-29T12:46:31.155Z,102065.41
2022-11-29T12:49:07.055Z,102076.69
2022-11-29T12:51:59.235Z,102079.06
2022-11-29T12:54:57.187Z,102076.69
2022-11-29T12:57:42.328Z,102076.91
2022-11-29T13:00:19.737Z,102080.16
2022-11-29T13:03:07.570Z,102079.06
2022-11-29T13:05:37.274Z,102081.84
2022-11-29T13:08:32.895Z,102076.38
2022-11-29T13:11:21.045Z,102078.19
2022-11-29T13:14:34.569Z,102076.28
2022-11-29T13:16:56.794Z,102081.50
2022-11-29T13:19:23.163Z,102084.22
2022-11-29T13:22:02.350Z,102094.84
2022-11-29T13:24:42.534Z,102085.63
2022-11-29T13:27:13.312Z,102098.03
2022-11-29T13:29:40.256Z,102094.34
2022-11-29T13:32:14.432Z,102090.00
2022-11-29T13:34:48.284Z,102089.03
2022-11-29T13:37:30.227Z,102089.03
2022-11-29T13:40:28.626Z,102092.94
2022-11-29T13:43:06.946Z,102101.72
2022-11-29T13:45:58.645Z,102100.09
2022-11-29T13:48:28.338Z,102096.59
2022-11-29T13:50:56.691Z,102099.44
2022-11-29T13:53:25.530Z,102103.09
2022-11-29T13:56:02.418Z,102095.97
2022-11-29T13:58:34.083Z,102106.19
2022-11-29T14:01:05.663Z,102102.94
2022-11-29T14:03:38.711Z,102111.31
2022-11-29T14:06:13.173Z,102100.78
2022-11-29T14:09:17.958Z,102107.16
2022-11-29T14:11:52.952Z,102097.28
2022-11-29T14:14:31.252Z,102104.66
2022-11-29T14:17:34.233Z,102095.16
2022-11-29T14:20:22.238Z,102097.44
2022-11-29T14:23:30.952Z,102105.03
2022-11-29T14:25:57.561Z,102101.69
2022-11-29T14:28:24.095Z,102102.09
2022-11-29T14:30:55.527Z,102101.72
2022-11-29T14:33:42.153Z,102105.81
2022-11-29T14:36:14.750Z,102112.72
2022-11-29T14:39:02.876Z,102108.81
2022-11-29T14:41:50.154Z,102121.97
2022-11-29T14:44:24.623Z,102117.25
2022-11-29T14:47:18.704Z,102118.47
2022-11-29T14:49:46.131Z,102115.19
2022-11-29T14:52:30.684Z,102124.25
2022-11-29T14:55:06.762Z,102116.47
2022-11-29T14:58:13.896Z,102115.97
2022-11-29T15:00:56.771Z,102113.63
2022-11-29T15:03:38.042Z,102107.66
2022-11-29T15:06:13.100Z,102122.38
2022-11-29T15:08:58.007Z,102124.50
2022-11-29T15:11:51.253Z,102119.47
2022-11-29T15:14:40.007Z,102118.69
2022-11-29T15:17:37.949Z,102136.00
2022-11-29T15:20:46.601Z,102129.41
2022-11-29T15:23:18.710Z,102133.28
2022-11-29T15:26:07.112Z,102136.31
2022-11-29T15:28:36.970Z,102126.00
2022-11-29T15:31:12.395Z,102130.75
2022-11-29T15:33:44.908Z,102138.19
2022-11-29T15:36:17.899Z,102143.91
2022-11-29T15:38:47.721Z,102137.97
2022-11-29T15:41:31.549Z,102140.09
2022-11-29T15:44:04.616Z,102147.31
2022-11-29T15:46:34.619Z,102140.50
2022-11-29T15:49:27.760Z,102153.09
2022-11-29T15:51:58.853Z,102152.22
2022-11-29T15:54:31.144Z,102156.47
2022-11-29T15:57:04.010Z,102150.75
2022-11-29T15:59:37.205Z,102160.25
2022-11-29T16:02:27.821Z,102167.81
2022-11-29T16:05:14.932Z,102165.75
2022-11-29T16:07:43.510Z,102163.03
2022-11-29T16:10:19.704Z,102164.56
2022-11-29T16:13:06.272Z,102165.31
2022-11-29T16:15:38.532Z,102169.78
2022-11-29T16:18:18.789Z,102167.09
2022-11-29T16:21:01.689Z,102173.16
2022-11-29T16:23:42.141Z,102172.00
2022-11-29T16:26:19.614Z,102167.56
2022-11-29T16:28:48.681Z,102169.16
2022-11-29T16:31:18.005Z,102168.25
2022-11-29T16:33:47.369Z,102170.75
2022-11-29T16:36:22.147Z,102174.31
2022-11-29T16:38:54.412Z,102169.88
2022-11-29T16:41:32.251Z,102182.25
2022-11-29T16:43:59.730Z,102181.13
2022-11-29T16:46:30.167Z,102177.50
2022-11-29T16:48:58.635Z,102181.88
2022-11-29T16:51:26.989Z,102177.28
2022-11-29T16:53:55.736Z,102183.41
2022-11-29T16:56:33.512Z,102182.50
2022-11-29T16:59:25.050Z,102181.69
2022-11-29T17:01:49.387Z,102183.41
2022-11-29T17:04:24.372Z,102184.38
2022-11-29T17:06:53.390Z,102180.72
2022-11-29T17:09:26.817Z,102186.09
2022-11-29T17:11:55.116Z,102188.84
2022-11-29T17:14:21.745Z,102194.28
2022-11-29T17:16:49.617Z,102187.94
2022-11-29T17:19:16.276Z,102186.09
2022-11-29T17:21:42.920Z,102194.16
2022-11-29T17:24:12.930Z,102190.50
2022-11-29T17:26:41.085Z,102202.13
2022-11-29T17:29:09.216Z,102201.16
2022-11-29T17:31:35.809Z,102203.84
2022-11-29T17:34:02.834Z,102198.34
2022-11-29T17:36:29.476Z,102199.31
2022-11-29T17:38:56.343Z,102202.00
2022-11-29T17:41:24.511Z,102205.47
2022-11-29T17:43:52.893Z,102212.59
2022-11-29T17:46:24.977Z,102206.47
2022-11-29T17:48:52.370Z,102211.72
2022-11-29T17:51:50.439Z,102205.44
2022-11-29T17:54:09.257Z,102210.72
2022-11-29T17:56:35.772Z,102208.97
2022-11-29T17:59:04.007Z,102208.03
2022-11-29T18:01:35.648Z,102208.97
2022-11-29T18:04:04.231Z,102207.16
2022-11-29T18:06:37.605Z,102219.56
2022-11-29T18:09:05.765Z,102221.34
2022-11-29T18:11:44.959Z,102225.69
2022-11-29T18:14:16.726Z,102227.47
2022-11-29T18:16:45.312Z,102227.47
2022-11-29T18:19:14.535Z,102226.66
2022-11-29T18:21:41.113Z,102229.22
2022-11-29T18:24:08.469Z,102229.22
2022-11-29T18:26:36.444Z,102247.13
2022-11-29T18:29:04.156Z,102246.22
2022-11-29T18:31:33.051Z,102248.84
2022-11-29T18:34:02.150Z,102248.78
2022-11-29T18:36:33.471Z,102240.78
2022-11-29T18:39:08.706Z,102246.09
2022-11-29T18:41:35.445Z,102240.78
2022-11-29T18:44:07.351Z,102245.28
2022-11-29T18:46:36.736Z,102253.19
2022-11-29T18:49:06.052Z,102257.72
2022-11-29T18:51:34.097Z,102254.22
2022-11-29T18:54:01.045Z,102250.56
2022-11-29T18:56:30.794Z,102247.88
2022-11-29T18:59:10.120Z,102252.34
2022-11-29T19:01:40.884Z,102252.34
2022-11-29T19:04:09.165Z,102254.09
2022-11-29T19:06:39.715Z,102257.78
2022-11-29T19:09:11.357Z,102266.63
2022-11-29T19:11:38.514Z,102263.16
2022-11-29T19:14:11.447Z,102259.59
2022-11-29T19:16:40.715Z,102266.72
2022-11-29T19:19:07.282Z,102266.63
2022-11-29T19:21:37.056Z,102263.16
2022-11-29T19:24:07.475Z,102265.03
2022-11-29T19:26:34.582Z,102264.03
2022-11-29T19:29:01.790Z,102266.72
2022-11-29T19:31:28.982Z,102270.28
2022-11-29T19:33:56.343Z,102265.72
2022-11-29T19:36:25.371Z,102262.09
2022-11-29T19:38:54.106Z,102273.72
2022-11-29T19:41:26.353Z,102272.91
2022-11-29T19:43:55.231Z,102274.72
2022-11-29T19:46:24.156Z,102271.16
2022-11-29T19:48:54.880Z,102274.72
2022-11-29T19:51:22.728Z,102278.22
2022-11-29T19:53:53.056Z,102271.09
2022-11-29T19:56:20.510Z,102269.31
2022-11-29T19:58:48.156Z,102274.72
2022-11-29T20:01:24.424Z,102280.91
2022-11-29T20:03:52.251Z,102283.59
2022-11-29T20:06:19.202Z,102283.59
2022-11-29T20:08:46.190Z,102283.59
2022-11-29T20:11:21.382Z,102282.75
2022-11-29T20:13:54.052Z,102291.59
2022-11-29T20:16:22.136Z,102289.91
2022-11-29T20:18:51.229Z,102294.41
2022-11-29T20:21:27.858Z,102291.72
2022-11-29T20:23:58.746Z,102292.47
2022-11-29T20:26:25.851Z,102287.09
2022-11-29T20:28:52.566Z,102293.44
2022-11-29T20:31:22.674Z,102291.66
2022-11-29T20:33:51.718Z,102297.03
2022-11-29T20:36:30.287Z,102291.59
2022-11-29T20:39:21.444Z,102289.97
2022-11-29T20:41:50.954Z,102302.47
2022-11-29T20:44:35.768Z,102301.56
2022-11-29T20:47:11.559Z,102297.09
2022-11-29T20:49:38.186Z,102301.56
2022-11-29T20:52:09.363Z,102302.41
2022-11-29T20:54:35.897Z,102301.56
2022-11-29T20:57:02.311Z,102312.25
2022-11-29T20:59:28.778Z,102313.03
2022-11-29T21:01:57.357Z,102313.16
2022-11-29T21:04:23.905Z,102307.72
2022-11-29T21:06:50.407Z,102305.09
2022-11-29T21:09:16.918Z,102310.47
2022-11-29T21:11:43.552Z,102310.47
2022-11-29T21:14:10.347Z,102306.94
2022-11-29T21:16:37.035Z,102311.28
2022-11-29T21:19:03.876Z,102319.34
2022-11-29T21:21:38.616Z,102326.44
2022-11-29T21:24:29.011Z,102327.28
2022-11-29T21:26:55.703Z,102330.94
2022-11-29T21:29:23.393Z,102329.16
2022-11-29T21:31:53.019Z,102329.16
2022-11-29T21:34:20.149Z,102329.13
2022-11-29T21:36:55.482Z,102337.13
2022-11-29T21:39:23.099Z,102335.28
2022-11-29T21:41:49.534Z,102334.44
2022-11-29T21:44:16.003Z,102333.50
2022-11-29T21:46:42.500Z,102336.19
2022-11-29T21:49:09.048Z,102337.00
2022-11-29T21:51:35.495Z,102336.19
2022-11-29T21:54:02.714Z,102339.75
2022-11-29T21:56:29.184Z,102342.44
2022-11-29T21:58:55.611Z,102342.38
2022-11-29T22:01:22.996Z,102342.38
2022-11-29T22:03:53.368Z,102344.13
2022-11-29T22:06:24.175Z,102338.78
2022-11-29T22:08:50.702Z,102347.75
2022-11-29T22:11:35.393Z,102344.13
2022-11-29T22:14:16.969Z,102355.81
2022-11-29T22:16:58.240Z,102347.75
2022-11-29T22:19:26.196Z,102348.63
2022-11-29T22:21:55.515Z,102355.69
2022-11-29T22:24:25.188Z,102344.03
2022-11-29T22:26:52.779Z,102348.44
2022-11-29T22:29:19.887Z,102352.00
2022-11-29T22:31:49.467Z,102354.72
2022-11-29T22:34:16.771Z,102357.38
2022-11-29T22:36:43.219Z,102367.31
2022-11-29T22:39:09.758Z,102354.00
2022-11-29T22:41:37.702Z,102356.63
2022-11-29T22:44:04.758Z,102354.88
2022-11-29T22:46:31.966Z,102355.81
2022-11-29T22:49:00.571Z,102364.78
2022-11-29T22:51:33.047Z,102363.94
2022-11-29T22:54:01.891Z,102368.44
2022-11-29T22:56:31.586Z,102365.94
2022-11-29T22:58:58.640Z,102372.25
2022-11-29T23:01:27.667Z,102372.31
2022-11-29T23:03:55.392Z,102372.31
2022-11-29T23:06:31.474Z,102375.06
2022-11-29T23:09:00.107Z,102376.00
2022-11-29T23:11:29.143Z,102376.94
2022-11-29T23:13:55.519Z,102378.75
2022-11-29T23:16:24.824Z,102383.25
2022-11-29T23:18:52.348Z,102378.75
2022-11-29T23:21:20.483Z,102380.50
2022-11-29T23:23:56.063Z,102381.44
2022-11-29T23:26:31.084Z,102371.56
2022-11-29T23:29:09.071Z,102372.56
2022-11-29T23:31:35.508Z,102377.88
2022-11-29T23:34:02.790Z,102374.31
2022-11-29T23:36:29.296Z,102377.94
2022-11-29T23:38:55.939Z,102377.06
2022-11-29T23:41:22.461Z,102377.06
2022-11-29T23:43:51.637Z,102381.53
2022-11-29T23:46:20.910Z,102385.19
2022-11-29T23:48:47.558Z,102381.53
2022-11-29T23:51:14.518Z,102386.00
2022-11-29T23:53:41.773Z,102384.34
2022-11-29T23:56:18.026Z,102385.31
2022-11-29T23:58:45.192Z,102388.97
